Time;durP1;ratioP1;P1;durP2;ratioP2;P2;SDS_P1;SDS_P2;PMS_P1;PMS_P2;Temp;Humidity;BMP_temperature;BMP_pressure;BME280_temperature;BME280_humidity;BME280_pressure;Samples;Min_cycle;Max_cycle;Signal;HPM_P1;HPM_P2
2023/09/02 00:00:03;;;;;;;;;;;15.20;99.90;;;;;;5023977;28;19943;-41
2023/09/02 00:02:30;;;;;;;;;;;15.10;99.90;;;;;;5025116;28;19971;-40
2023/09/02 00:04:56;;;;;;;;;;;15.10;99.90;;;;;;5052554;28;19940;-40
2023/09/02 00:07:23;;;;;;;;;;;15.10;99.90;;;;;;5031029;28;19932;-40
2023/09/02 00:09:51;;;;;;;;;;;15.10;99.90;;;;;;5032242;28;19933;-41
2023/09/02 00:12:18;;;;;;;;;;;15.10;99.90;;;;;;5022245;28;19942;-40
2023/09/02 00:14:44;;;;;;;;;;;15.10;99.90;;;;;;5021096;28;19935;-41
2023/09/02 00:17:11;;;;;;;;;;;15.00;99.90;;;;;;5030991;28;19951;-41
2023/09/02 00:19:38;;;;;;;;;;;15.10;99.90;;;;;;5032066;28;19931;-40
2023/09/02 00:22:05;;;;;;;;;;;15.10;99.90;;;;;;5032231;28;19965;-40
2023/09/02 00:24:31;;;;;;;;;;;15.10;99.90;;;;;;5031846;28;19979;-40
2023/09/02 00:26:59;;;;;;;;;;;15.10;99.90;;;;;;5032156;28;20300;-40
2023/09/02 00:29:26;;;;;;;;;;;15.00;99.90;;;;;;5020140;28;19967;-41
2023/09/02 00:31:53;;;;;;;;;;;15.10;99.90;;;;;;5032104;28;19925;-40
2023/09/02 00:34:19;;;;;;;;;;;15.10;99.90;;;;;;5031781;28;19947;-40
2023/09/02 00:36:46;;;;;;;;;;;15.10;99.90;;;;;;5032223;28;19941;-41
2023/09/02 00:39:13;;;;;;;;;;;15.10;99.90;;;;;;5032269;28;19932;-41
2023/09/02 00:41:40;;;;;;;;;;;15.10;99.90;;;;;;5031818;28;20011;-41
2023/09/02 00:44:08;;;;;;;;;;;15.00;99.90;;;;;;5031866;28;20000;-41
2023/09/02 00:46:35;;;;;;;;;;;15.00;99.90;;;;;;5030337;28;19990;-40
2023/09/02 00:49:02;;;;;;;;;;;15.00;99.90;;;;;;5023846;28;20369;-40
2023/09/02 00:51:29;;;;;;;;;;;15.00;99.90;;;;;;5031132;28;20391;-41
2023/09/02 00:53:55;;;;;;;;;;;15.00;99.90;;;;;;5031016;28;20368;-41
2023/09/02 00:56:22;;;;;;;;;;;15.00;99.90;;;;;;5031863;28;19940;-41
2023/09/02 00:58:49;;;;;;;;;;;15.00;99.90;;;;;;5031827;28;19943;-40
2023/09/02 01:01:17;;;;;;;;;;;15.00;99.90;;;;;;5029171;28;19943;-40
2023/09/02 01:03:43;;;;;;;;;;;15.00;99.90;;;;;;5021509;28;19940;-41
2023/09/02 01:06:10;;;;;;;;;;;15.00;99.90;;;;;;5065632;28;20454;-40
2023/09/02 01:08:37;;;;;;;;;;;15.00;99.90;;;;;;5066149;28;20446;-40
2023/09/02 01:11:03;;;;;;;;;;;15.00;99.90;;;;;;5034175;28;19939;-41
2023/09/02 01:13:30;;;;;;;;;;;15.00;99.90;;;;;;5035025;28;20408;-41
2023/09/02 01:15:57;;;;;;;;;;;15.00;99.90;;;;;;5033823;28;20430;-40
2023/09/02 01:18:25;;;;;;;;;;;15.00;99.90;;;;;;5033240;28;19943;-41
2023/09/02 01:20:56;;;;;;;;;;;15.00;99.90;;;;;;5034703;28;20019;-41
2023/09/02 01:23:31;;;;;;;;;;;15.00;99.90;;;;;;5017307;28;19940;-40
2023/09/02 01:26:03;;;;;;;;;;;15.00;99.90;;;;;;5054286;28;20022;-41
2023/09/02 01:28:31;;;;;;;;;;;14.90;99.90;;;;;;5034772;28;19968;-41
2023/09/02 01:30:58;;;;;;;;;;;14.90;99.90;;;;;;5033594;28;19965;-41
2023/09/02 01:33:26;;;;;;;;;;;14.90;99.90;;;;;;5034706;28;19962;-40
2023/09/02 01:35:53;;;;;;;;;;;14.90;99.90;;;;;;5032501;28;19948;-40
2023/09/02 01:38:21;;;;;;;;;;;14.90;99.90;;;;;;5034226;28;19954;-40
2023/09/02 01:40:48;;;;;;;;;;;14.80;99.90;;;;;;5066315;28;20464;-41
2023/09/02 01:43:17;;;;;;;;;;;14.80;99.90;;;;;;5033644;28;19925;-40
2023/09/02 01:45:45;;;;;;;;;;;14.90;99.90;;;;;;5033467;28;19947;-41
2023/09/02 01:48:12;;;;;;;;;;;14.90;99.90;;;;;;5032758;28;20002;-40
2023/09/02 01:50:39;;;;;;;;;;;14.80;99.90;;;;;;5055937;28;19961;-40
2023/09/02 01:53:05;;;;;;;;;;;14.90;99.90;;;;;;5026817;28;19997;-41
2023/09/02 01:55:32;;;;;;;;;;;14.90;99.90;;;;;;5023106;28;19959;-40
2023/09/02 01:57:59;;;;;;;;;;;14.80;99.90;;;;;;5019545;28;20017;-41
2023/09/02 02:00:26;;;;;;;;;;;14.80;99.90;;;;;;5060224;28;19940;-41
2023/09/02 02:02:54;;;;;;;;;;;14.90;99.90;;;;;;5064818;28;19929;-41
2023/09/02 02:05:22;;;;;;;;;;;14.80;99.90;;;;;;5033527;28;20405;-41
2023/09/02 02:07:52;;;;;;;;;;;14.80;99.90;;;;;;5051556;28;19926;-40
2023/09/02 02:10:19;;;;;;;;;;;14.80;99.90;;;;;;5018895;28;20325;-40
2023/09/02 02:12:46;;;;;;;;;;;14.80;99.90;;;;;;5019104;28;20339;-40
2023/09/02 02:15:12;;;;;;;;;;;14.80;99.90;;;;;;5065905;28;19946;-40
2023/09/02 02:17:39;;;;;;;;;;;14.80;99.90;;;;;;5033417;28;19943;-41
2023/09/02 02:20:09;;;;;;;;;;;14.80;99.90;;;;;;5017271;28;19926;-41
2023/09/02 02:22:36;;;;;;;;;;;14.80;99.90;;;;;;5022010;28;19932;-41
2023/09/02 02:25:02;;;;;;;;;;;14.80;99.90;;;;;;5050411;28;20460;-40
2023/09/02 02:27:29;;;;;;;;;;;14.80;99.90;;;;;;5032908;28;20007;-40
2023/09/02 02:29:57;;;;;;;;;;;14.70;99.90;;;;;;5032471;28;19955;-40
2023/09/02 02:32:24;;;;;;;;;;;14.70;99.90;;;;;;5032519;28;20383;-40
2023/09/02 02:34:50;;;;;;;;;;;14.70;99.90;;;;;;5032769;28;20003;-41
2023/09/02 02:37:18;;;;;;;;;;;14.70;99.90;;;;;;5029530;28;20388;-40
2023/09/02 02:39:45;;;;;;;;;;;14.70;99.90;;;;;;5064456;28;19939;-41
2023/09/02 02:42:14;;;;;;;;;;;14.70;99.90;;;;;;5032444;28;20405;-41
2023/09/02 02:44:41;;;;;;;;;;;14.70;99.90;;;;;;5031792;28;19979;-40
2023/09/02 02:47:08;;;;;;;;;;;14.70;99.90;;;;;;5065870;28;19963;-41
2023/09/02 02:49:34;;;;;;;;;;;14.70;99.90;;;;;;5032055;28;20018;-40
2023/09/02 02:52:01;;;;;;;;;;;14.70;99.90;;;;;;5033481;28;19929;-41
2023/09/02 02:54:29;;;;;;;;;;;14.70;99.90;;;;;;5063810;28;19939;-40
2023/09/02 02:56:56;;;;;;;;;;;14.60;99.90;;;;;;5028632;28;19987;-40
2023/09/02 02:59:23;;;;;;;;;;;14.60;99.90;;;;;;5029404;28;19979;-40
2023/09/02 03:01:50;;;;;;;;;;;14.60;99.90;;;;;;5027379;28;19935;-40
2023/09/02 03:04:17;;;;;;;;;;;14.60;99.90;;;;;;5063931;28;19941;-41
2023/09/02 03:06:44;;;;;;;;;;;14.60;99.90;;;;;;5030818;28;20372;-40
2023/09/02 03:09:10;;;;;;;;;;;14.60;99.90;;;;;;5027546;28;20015;-40
2023/09/02 03:11:38;;;;;;;;;;;14.60;99.90;;;;;;5032182;28;19970;-40
2023/09/02 03:14:05;;;;;;;;;;;14.60;99.90;;;;;;5032185;28;19987;-40
2023/09/02 03:16:32;;;;;;;;;;;14.60;99.90;;;;;;5064657;28;19933;-41
2023/09/02 03:18:59;;;;;;;;;;;14.60;99.90;;;;;;5032124;28;19941;-40
2023/09/02 03:21:25;;;;;;;;;;;14.60;99.90;;;;;;5032115;28;19983;-40
2023/09/02 03:23:52;;;;;;;;;;;14.60;99.90;;;;;;5032564;28;19960;-41
2023/09/02 03:26:19;;;;;;;;;;;14.60;99.90;;;;;;5031483;28;19944;-40
2023/09/02 03:28:47;;;;;;;;;;;14.60;99.90;;;;;;5031269;28;19941;-40
2023/09/02 03:31:14;;;;;;;;;;;14.60;99.90;;;;;;5033037;28;20009;-40
2023/09/02 03:33:40;;;;;;;;;;;14.60;99.90;;;;;;5032784;28;20005;-40
2023/09/02 03:36:07;;;;;;;;;;;14.60;99.90;;;;;;5031848;28;19948;-40
2023/09/02 03:38:34;;;;;;;;;;;14.60;99.90;;;;;;5032604;28;19941;-40
2023/09/02 03:41:01;;;;;;;;;;;14.50;99.90;;;;;;5032512;28;20018;-40
2023/09/02 03:43:27;;;;;;;;;;;14.50;99.90;;;;;;5032551;28;20303;-40
2023/09/02 03:45:58;;;;;;;;;;;14.50;99.90;;;;;;5020203;28;20019;-40
2023/09/02 03:48:25;;;;;;;;;;;14.50;99.90;;;;;;5032457;28;19944;-40
2023/09/02 03:51:03;;;;;;;;;;;14.50;99.90;;;;;;5032270;28;20033;-40
2023/09/02 03:53:30;;;;;;;;;;;14.50;99.90;;;;;;5015920;28;20381;-41
2023/09/02 03:55:57;;;;;;;;;;;14.50;99.90;;;;;;5027748;28;20336;-40
2023/09/02 03:58:23;;;;;;;;;;;14.50;99.90;;;;;;5031219;28;19946;-40
2023/09/02 04:00:50;;;;;;;;;;;14.50;99.90;;;;;;5032166;28;20285;-40
2023/09/02 04:03:19;;;;;;;;;;;14.50;99.90;;;;;;5032281;28;19925;-40
2023/09/02 04:05:46;;;;;;;;;;;14.50;99.90;;;;;;5032330;28;19925;-40
2023/09/02 04:08:13;;;;;;;;;;;14.50;99.90;;;;;;5031126;28;19939;-40
2023/09/02 04:10:40;;;;;;;;;;;14.50;99.90;;;;;;5029350;28;20213;-40
2023/09/02 04:13:06;;;;;;;;;;;14.50;99.90;;;;;;5064357;28;19942;-40
2023/09/02 04:15:33;;;;;;;;;;;14.50;99.90;;;;;;5032249;28;19939;-40
2023/09/02 04:18:00;;;;;;;;;;;14.50;99.90;;;;;;5031931;28;19950;-40
2023/09/02 04:20:28;;;;;;;;;;;14.50;99.90;;;;;;5031144;28;20369;-40
2023/09/02 04:22:54;;;;;;;;;;;14.50;99.90;;;;;;5031474;28;19950;-40
2023/09/02 04:25:21;;;;;;;;;;;14.40;99.90;;;;;;5030515;28;19937;-40
2023/09/02 04:27:48;;;;;;;;;;;14.50;99.90;;;;;;5012081;28;19992;-41
2023/09/02 04:30:16;;;;;;;;;;;14.50;99.90;;;;;;5028407;28;19957;-40
2023/09/02 04:32:42;;;;;;;;;;;14.50;99.90;;;;;;5032198;28;19948;-41
2023/09/02 04:35:09;;;;;;;;;;;14.50;99.90;;;;;;5032104;28;19943;-40
2023/09/02 04:37:37;;;;;;;;;;;14.50;99.90;;;;;;5033540;28;20011;-41
2023/09/02 04:40:05;;;;;;;;;;;14.50;99.90;;;;;;5035613;28;19946;-40
2023/09/02 04:42:32;;;;;;;;;;;14.50;99.90;;;;;;5034544;28;19943;-40
2023/09/02 04:44:59;;;;;;;;;;;14.60;99.90;;;;;;5029923;28;20481;-40
2023/09/02 04:47:26;;;;;;;;;;;14.60;99.90;;;;;;5067968;28;19939;-40
2023/09/02 04:49:52;;;;;;;;;;;14.60;99.90;;;;;;5034236;28;19973;-40
2023/09/02 04:52:19;;;;;;;;;;;14.60;99.90;;;;;;5035288;28;20330;-40
2023/09/02 04:54:47;;;;;;;;;;;14.60;99.90;;;;;;5034211;28;19939;-40
2023/09/02 04:57:14;;;;;;;;;;;14.60;99.90;;;;;;5025132;28;19994;-40
2023/09/02 04:59:41;;;;;;;;;;;14.60;99.90;;;;;;5028865;28;20489;-40
2023/09/02 05:02:07;;;;;;;;;;;14.60;99.90;;;;;;5034390;28;19987;-40
2023/09/02 05:04:34;;;;;;;;;;;14.60;99.90;;;;;;5031355;28;19942;-40
2023/09/02 05:07:01;;;;;;;;;;;14.70;99.90;;;;;;5015492;28;19925;-40
2023/09/02 05:09:27;;;;;;;;;;;14.60;99.90;;;;;;5016003;28;19929;-40
2023/09/02 05:11:55;;;;;;;;;;;14.70;99.90;;;;;;5047479;28;19942;-40
2023/09/02 05:14:22;;;;;;;;;;;14.70;99.90;;;;;;5021176;28;19936;-41
2023/09/02 05:16:49;;;;;;;;;;;14.70;99.90;;;;;;5033172;28;20003;-40
2023/09/02 05:19:15;;;;;;;;;;;14.70;99.90;;;;;;5030206;28;19996;-40
2023/09/02 05:21:42;;;;;;;;;;;14.70;99.90;;;;;;5034910;28;19941;-41
2023/09/02 05:24:09;;;;;;;;;;;14.70;99.90;;;;;;5035224;28;19939;-40
2023/09/02 05:26:35;;;;;;;;;;;14.70;99.90;;;;;;5035053;28;20354;-40
2023/09/02 05:29:04;;;;;;;;;;;14.70;99.90;;;;;;5033723;28;19990;-40
2023/09/02 05:31:31;;;;;;;;;;;14.70;99.90;;;;;;5034877;28;19960;-40
2023/09/02 05:33:57;;;;;;;;;;;14.70;99.90;;;;;;5033842;28;20313;-40
2023/09/02 05:36:24;;;;;;;;;;;14.70;99.90;;;;;;5017279;28;19948;-40
2023/09/02 05:38:51;;;;;;;;;;;14.70;99.90;;;;;;5014748;28;19940;-40
2023/09/02 05:41:17;;;;;;;;;;;14.70;99.90;;;;;;5014615;28;20422;-40
2023/09/02 05:43:44;;;;;;;;;;;14.70;99.90;;;;;;5014745;28;19948;-39
2023/09/02 05:46:12;;;;;;;;;;;14.80;99.90;;;;;;5014838;28;19988;-39
2023/09/02 05:48:39;;;;;;;;;;;14.80;99.90;;;;;;5014085;28;20003;-39
2023/09/02 05:51:05;;;;;;;;;;;14.80;99.90;;;;;;5019477;28;20325;-39
2023/09/02 05:53:32;;;;;;;;;;;14.80;99.90;;;;;;5033512;28;19941;-39
2023/09/02 05:55:59;;;;;;;;;;;14.90;99.90;;;;;;5033281;28;19958;-37
2023/09/02 05:58:26;;;;;;;;;;;14.90;99.90;;;;;;5030796;28;19994;-38
2023/09/02 06:00:52;;;;;;;;;;;15.00;99.90;;;;;;5025463;28;20389;-38
2023/09/02 06:03:20;;;;;;;;;;;15.00;99.90;;;;;;5017357;28;19940;-39
2023/09/02 06:05:47;;;;;;;;;;;15.00;99.90;;;;;;5028531;28;19943;-39
2023/09/02 06:08:15;;;;;;;;;;;15.00;99.90;;;;;;5030410;28;19993;-39
2023/09/02 06:10:41;;;;;;;;;;;15.10;99.90;;;;;;5034038;28;19972;-39
2023/09/02 06:13:08;;;;;;;;;;;15.10;99.90;;;;;;5033915;28;20351;-39
2023/09/02 06:15:35;;;;;;;;;;;15.10;99.90;;;;;;5033963;28;20086;-39
2023/09/02 06:18:05;;;;;;;;;;;15.10;99.90;;;;;;5033940;28;20337;-39
2023/09/02 06:20:33;;;;;;;;;;;15.20;99.90;;;;;;5065918;28;19948;-39
2023/09/02 06:22:59;;;;;;;;;;;15.20;99.90;;;;;;5027092;28;19945;-38
2023/09/02 06:25:26;;;;;;;;;;;15.20;99.90;;;;;;5026073;28;19999;-38
2023/09/02 06:27:53;;;;;;;;;;;15.30;99.90;;;;;;5017043;28;20304;-39
2023/09/02 06:30:19;;;;;;;;;;;15.30;99.90;;;;;;5028863;28;19952;-39
2023/09/02 06:32:46;;;;;;;;;;;15.30;99.90;;;;;;5027478;28;20033;-39
2023/09/02 06:35:15;;;;;;;;;;;15.40;99.90;;;;;;5025335;28;20057;-38
2023/09/02 06:37:43;;;;;;;;;;;15.40;99.90;;;;;;5032283;28;19992;-39
2023/09/02 06:40:10;;;;;;;;;;;15.40;99.90;;;;;;5033769;28;20403;-39
2023/09/02 06:42:36;;;;;;;;;;;15.50;99.90;;;;;;5019871;28;20319;-39
2023/09/02 06:45:03;;;;;;;;;;;15.60;99.90;;;;;;5030493;28;19986;-39
2023/09/02 06:47:30;;;;;;;;;;;15.70;99.90;;;;;;5056880;28;19945;-40
2023/09/02 06:49:57;;;;;;;;;;;15.70;99.90;;;;;;5027691;28;20024;-39
2023/09/02 06:52:23;;;;;;;;;;;15.80;99.90;;;;;;5015217;28;19936;-39
2023/09/02 06:54:52;;;;;;;;;;;15.90;99.90;;;;;;5019760;28;19944;-39
2023/09/02 06:57:18;;;;;;;;;;;15.90;99.90;;;;;;5028680;28;19943;-40
2023/09/02 06:59:45;;;;;;;;;;;16.00;99.90;;;;;;5028696;28;19935;-40
2023/09/02 07:02:12;;;;;;;;;;;16.00;99.90;;;;;;5027142;28;19949;-39
2023/09/02 07:04:38;;;;;;;;;;;16.10;99.90;;;;;;5042286;28;19941;-40
2023/09/02 07:07:05;;;;;;;;;;;16.10;99.90;;;;;;5028614;28;20360;-40
2023/09/02 07:09:32;;;;;;;;;;;16.10;99.90;;;;;;5030957;28;19948;-39
2023/09/02 07:12:00;;;;;;;;;;;16.20;99.90;;;;;;5022706;28;19952;-40
2023/09/02 07:14:26;;;;;;;;;;;16.20;99.90;;;;;;5026597;28;19991;-40
2023/09/02 07:16:53;;;;;;;;;;;16.30;99.90;;;;;;5030124;28;19937;-40
2023/09/02 07:19:20;;;;;;;;;;;16.40;99.90;;;;;;5024229;28;20379;-40
2023/09/02 07:21:46;;;;;;;;;;;16.50;99.90;;;;;;5056869;28;19946;-40
2023/09/02 07:24:13;;;;;;;;;;;16.50;99.90;;;;;;5020481;28;20001;-39
2023/09/02 07:26:40;;;;;;;;;;;16.60;99.90;;;;;;5027044;28;19955;-40
2023/09/02 07:29:08;;;;;;;;;;;16.70;99.90;;;;;;5026244;28;19999;-40
2023/09/02 07:31:35;;;;;;;;;;;16.70;99.90;;;;;;5030854;28;19953;-40
2023/09/02 07:34:01;;;;;;;;;;;16.80;99.90;;;;;;5023351;28;19942;-40
2023/09/02 07:36:28;;;;;;;;;;;16.90;99.90;;;;;;5029803;28;19946;-40
2023/09/02 07:38:55;;;;;;;;;;;17.00;99.90;;;;;;5032025;28;19939;-39
2023/09/02 07:41:21;;;;;;;;;;;17.00;99.90;;;;;;5032141;28;19941;-40
2023/09/02 07:43:48;;;;;;;;;;;17.10;99.90;;;;;;5032175;28;20391;-40
2023/09/02 07:46:16;;;;;;;;;;;17.20;99.90;;;;;;5023822;28;20420;-40
2023/09/02 07:48:43;;;;;;;;;;;17.20;99.90;;;;;;5044942;28;20000;-40
2023/09/02 07:51:09;;;;;;;;;;;17.20;99.90;;;;;;5045027;28;20073;-40
2023/09/02 07:53:36;;;;;;;;;;;17.20;99.90;;;;;;5013342;28;20278;-40
2023/09/02 07:56:03;;;;;;;;;;;17.20;99.90;;;;;;5012390;28;20472;-40
2023/09/02 07:58:29;;;;;;;;;;;17.30;99.90;;;;;;5012859;28;19951;-40
2023/09/02 08:00:56;;;;;;;;;;;17.30;99.90;;;;;;5025647;28;19981;-40
2023/09/02 08:03:24;;;;;;;;;;;17.40;99.90;;;;;;5026064;28;20289;-40
2023/09/02 08:05:51;;;;;;;;;;;17.40;99.90;;;;;;5013551;28;19944;-40
2023/09/02 08:08:18;;;;;;;;;;;17.40;99.90;;;;;;5012934;28;19992;-40
2023/09/02 08:10:44;;;;;;;;;;;17.50;99.90;;;;;;5025582;28;20304;-40
2023/09/02 08:13:11;;;;;;;;;;;17.50;99.90;;;;;;5060957;28;19961;-40
2023/09/02 08:15:38;;;;;;;;;;;17.60;99.90;;;;;;5027123;28;19989;-40
2023/09/02 08:18:04;;;;;;;;;;;17.60;99.90;;;;;;5067920;28;19941;-40
2023/09/02 08:20:33;;;;;;;;;;;17.70;99.90;;;;;;5017229;28;19947;-40
2023/09/02 08:23:00;;;;;;;;;;;17.80;99.90;;;;;;5018557;28;19987;-40
2023/09/02 08:25:27;;;;;;;;;;;18.00;99.90;;;;;;5033715;28;19943;-41
2023/09/02 08:27:53;;;;;;;;;;;18.20;99.90;;;;;;5035527;28;19988;-40
2023/09/02 08:30:20;;;;;;;;;;;18.40;99.90;;;;;;5034897;28;19946;-41
2023/09/02 08:32:47;;;;;;;;;;;18.60;99.90;;;;;;5030425;28;19943;-40
2023/09/02 08:35:13;;;;;;;;;;;18.80;99.90;;;;;;5025167;28;19939;-40
2023/09/02 08:37:41;;;;;;;;;;;18.90;99.90;;;;;;5062838;28;19992;-40
2023/09/02 08:40:08;;;;;;;;;;;19.00;99.90;;;;;;5026551;28;19936;-41
2023/09/02 08:42:36;;;;;;;;;;;19.00;99.90;;;;;;5027245;28;19937;-40
2023/09/02 08:45:04;;;;;;;;;;;19.00;99.90;;;;;;5061281;28;19997;-40
2023/09/02 08:47:31;;;;;;;;;;;19.10;99.90;;;;;;5030631;28;19950;-40
2023/09/02 08:49:57;;;;;;;;;;;19.20;99.90;;;;;;5024000;28;19955;-40
2023/09/02 08:52:25;;;;;;;;;;;19.30;99.90;;;;;;5035577;28;20364;-40
2023/09/02 08:54:54;;;;;;;;;;;19.50;99.90;;;;;;5054968;28;20670;-40
2023/09/02 08:57:20;;;;;;;;;;;19.60;99.90;;;;;;5014759;28;20403;-40
2023/09/02 08:59:47;;;;;;;;;;;19.70;99.90;;;;;;5019512;28;20395;-41
2023/09/02 09:02:14;;;;;;;;;;;19.80;99.90;;;;;;5035054;28;19947;-41
2023/09/02 09:04:40;;;;;;;;;;;19.80;99.90;;;;;;5033949;28;20420;-40
2023/09/02 09:07:07;;;;;;;;;;;19.80;99.90;;;;;;5034235;28;19950;-40
2023/09/02 09:09:34;;;;;;;;;;;19.80;99.90;;;;;;5035322;28;19968;-41
2023/09/02 09:12:02;;;;;;;;;;;19.90;99.90;;;;;;5034974;28;19964;-41
2023/09/02 09:14:30;;;;;;;;;;;19.90;99.90;;;;;;5034861;28;19925;-40
2023/09/02 09:16:57;;;;;;;;;;;20.00;99.90;;;;;;5034089;28;19942;-40
2023/09/02 09:19:24;;;;;;;;;;;20.10;99.90;;;;;;5033693;28;19925;-40
2023/09/02 09:21:51;;;;;;;;;;;20.10;99.90;;;;;;5018845;28;20311;-41
2023/09/02 09:24:17;;;;;;;;;;;20.10;99.90;;;;;;5032738;28;19991;-41
2023/09/02 09:26:44;;;;;;;;;;;20.00;99.90;;;;;;5024800;28;19985;-41
2023/09/02 09:29:13;;;;;;;;;;;20.00;99.90;;;;;;5024462;28;20376;-41
2023/09/02 09:31:39;;;;;;;;;;;19.90;99.90;;;;;;5031159;28;19955;-41
2023/09/02 09:34:06;;;;;;;;;;;20.00;99.90;;;;;;5034178;28;20004;-40
2023/09/02 09:36:33;;;;;;;;;;;20.20;99.90;;;;;;5024910;28;19943;-40
2023/09/02 09:39:00;;;;;;;;;;;20.40;99.90;;;;;;5026530;28;19970;-40
2023/09/02 09:41:27;;;;;;;;;;;20.60;99.90;;;;;;5065687;28;19990;-41
2023/09/02 09:44:03;;;;;;;;;;;20.70;99.90;;;;;;5031289;28;20392;-40
2023/09/02 09:46:31;;;;;;;;;;;20.80;99.90;;;;;;5029017;28;19937;-41
2023/09/02 09:49:01;;;;;;;;;;;21.00;99.90;;;;;;5020962;28;19939;-40
2023/09/02 09:51:27;;;;;;;;;;;21.10;99.90;;;;;;5021793;28;19976;-41
2023/09/02 09:53:54;;;;;;;;;;;21.10;99.90;;;;;;5023796;28;19936;-41
2023/09/02 09:56:21;;;;;;;;;;;21.10;99.90;;;;;;5029239;28;19989;-40
2023/09/02 09:58:47;;;;;;;;;;;21.10;99.90;;;;;;5028869;28;19944;-41
2023/09/02 10:01:20;;;;;;;;;;;21.10;99.90;;;;;;5027499;28;19936;-41
2023/09/02 10:03:49;;;;;;;;;;;21.00;99.90;;;;;;5024975;28;19946;-41
2023/09/02 10:06:15;;;;;;;;;;;21.00;99.90;;;;;;5023256;28;20418;-41
2023/09/02 10:08:52;;;;;;;;;;;21.10;99.90;;;;;;5060376;28;19983;-41
2023/09/02 10:11:20;;;;;;;;;;;21.30;99.90;;;;;;5033659;28;19957;-40
2023/09/02 10:13:46;;;;;;;;;;;21.40;99.90;;;;;;5032453;28;19940;-41
2023/09/02 10:16:13;;;;;;;;;;;21.50;99.90;;;;;;5022265;28;20406;-41
2023/09/02 10:18:40;;;;;;;;;;;21.60;99.90;;;;;;5029723;28;19944;-41
2023/09/02 10:21:08;;;;;;;;;;;21.60;99.90;;;;;;5013868;28;20397;-41
2023/09/02 10:23:35;;;;;;;;;;;21.60;99.90;;;;;;5019037;28;19933;-41
2023/09/02 10:26:04;;;;;;;;;;;21.70;99.90;;;;;;5029741;28;19985;-40
2023/09/02 10:28:32;;;;;;;;;;;21.80;99.90;;;;;;5057638;28;19949;-41
2023/09/02 10:30:59;;;;;;;;;;;22.00;99.90;;;;;;5032407;28;20046;-41
2023/09/02 10:33:28;;;;;;;;;;;22.20;99.90;;;;;;5026452;28;20328;-41
2023/09/02 10:35:57;;;;;;;;;;;22.40;99.90;;;;;;5026943;28;19958;-41
2023/09/02 10:38:25;;;;;;;;;;;22.60;99.90;;;;;;5020646;28;20364;-41
2023/09/02 10:40:56;;;;;;;;;;;22.70;99.90;;;;;;5023694;28;20356;-41
2023/09/02 10:43:23;;;;;;;;;;;22.80;99.90;;;;;;5026942;28;20023;-41
2023/09/02 10:45:49;;;;;;;;;;;22.90;99.90;;;;;;5026336;28;19930;-41
2023/09/02 10:48:16;;;;;;;;;;;23.20;99.90;;;;;;5025673;28;19942;-41
2023/09/02 10:50:43;;;;;;;;;;;23.40;99.90;;;;;;5031519;28;20439;-41
2023/09/02 10:53:10;;;;;;;;;;;23.50;99.90;;;;;;5030503;28;19964;-40
2023/09/02 10:55:38;;;;;;;;;;;23.40;99.90;;;;;;5031591;28;19946;-41
2023/09/02 10:58:05;;;;;;;;;;;23.30;99.90;;;;;;5052015;28;19956;-41
2023/09/02 11:00:31;;;;;;;;;;;23.10;99.90;;;;;;5023441;28;19964;-41
2023/09/02 11:02:58;;;;;;;;;;;22.90;99.90;;;;;;5033093;28;19969;-41
2023/09/02 11:05:27;;;;;;;;;;;22.70;99.90;;;;;;5032133;28;19989;-41
2023/09/02 11:07:53;;;;;;;;;;;22.50;99.90;;;;;;5028432;28;20015;-41
2023/09/02 11:10:20;;;;;;;;;;;22.40;99.90;;;;;;5032998;28;20005;-41
2023/09/02 11:13:05;;;;;;;;;;;22.30;99.90;;;;;;5032897;28;19955;-41
2023/09/02 11:15:34;;;;;;;;;;;22.30;99.90;;;;;;5029495;28;19979;-41
2023/09/02 11:18:15;;;;;;;;;;;22.40;99.90;;;;;;5021363;28;19947;-41
2023/09/02 11:20:48;;;;;;;;;;;22.70;99.90;;;;;;5024351;28;19957;-41
2023/09/02 11:23:15;;;;;;;;;;;22.90;99.90;;;;;;5026872;28;19952;-41
2023/09/02 11:25:42;;;;;;;;;;;23.00;99.90;;;;;;5041999;28;20379;-41
2023/09/02 11:28:09;;;;;;;;;;;22.90;99.90;;;;;;5032771;28;19941;-41
2023/09/02 11:30:37;;;;;;;;;;;23.00;99.90;;;;;;5057452;28;20395;-41
2023/09/02 11:33:04;;;;;;;;;;;23.20;99.90;;;;;;5019159;28;19926;-40
2023/09/02 11:35:32;;;;;;;;;;;23.40;99.90;;;;;;5028114;28;21080;-40
2023/09/02 11:37:58;;;;;;;;;;;23.70;99.90;;;;;;5024776;28;19936;-40
2023/09/02 11:40:26;;;;;;;;;;;23.80;99.90;;;;;;5031201;28;19958;-40
2023/09/02 11:42:52;;;;;;;;;;;24.00;99.90;;;;;;5029881;28;20290;-40
2023/09/02 11:45:19;;;;;;;;;;;24.10;99.90;;;;;;5053615;28;19935;-40
2023/09/02 11:47:48;;;;;;;;;;;24.30;99.90;;;;;;5022980;28;19948;-40
2023/09/02 11:50:15;;;;;;;;;;;24.40;99.90;;;;;;5012524;28;20391;-40
2023/09/02 11:52:42;;;;;;;;;;;24.50;99.90;;;;;;5011306;28;19968;-40
2023/09/02 11:55:09;;;;;;;;;;;24.70;99.90;;;;;;5012813;28;19947;-40
2023/09/02 11:57:36;;;;;;;;;;;24.70;99.90;;;;;;5012812;28;19961;-40
2023/09/02 12:00:03;;;;;;;;;;;24.50;99.90;;;;;;5023343;28;19995;-40
2023/09/02 12:02:29;;;;;;;;;;;24.30;99.90;;;;;;5031294;28;19984;-40
2023/09/02 12:04:57;;;;;;;;;;;24.20;99.90;;;;;;5026437;28;20014;-40
2023/09/02 12:07:24;;;;;;;;;;;24.20;99.90;;;;;;5016317;28;20389;-40
2023/09/02 12:09:51;;;;;;;;;;;24.30;99.90;;;;;;5032505;28;19943;-40
2023/09/02 12:12:17;;;;;;;;;;;24.40;99.90;;;;;;5023875;28;19956;-40
2023/09/02 12:14:44;;;;;;;;;;;24.60;99.90;;;;;;5015294;28;20316;-40
2023/09/02 12:17:11;;;;;;;;;;;24.70;99.90;;;;;;5012271;28;19950;-40
2023/09/02 12:19:38;;;;;;;;;;;24.70;99.90;;;;;;5017647;28;19936;-40
2023/09/02 12:22:06;;;;;;;;;;;24.80;99.90;;;;;;5029673;28;19998;-40
2023/09/02 12:24:32;;;;;;;;;;;25.00;99.90;;;;;;5020724;28;20478;-40
2023/09/02 12:27:00;;;;;;;;;;;25.20;99.90;;;;;;5029176;28;19945;-40
2023/09/02 12:29:26;;;;;;;;;;;25.20;99.90;;;;;;5027272;28;19936;-41
2023/09/02 12:31:53;;;;;;;;;;;25.10;99.90;;;;;;5014573;28;19956;-41
2023/09/02 12:34:20;;;;;;;;;;;25.20;99.90;;;;;;5061737;28;19960;-41
2023/09/02 12:36:46;;;;;;;;;;;25.40;99.90;;;;;;5031257;28;19939;-41
2023/09/02 12:39:23;;;;;;;;;;;25.50;99.90;;;;;;5031182;28;19925;-41
2023/09/02 12:41:50;;;;;;;;;;;25.50;99.90;;;;;;5032054;28;19929;-41
2023/09/02 12:44:18;;;;;;;;;;;25.50;99.90;;;;;;5027482;28;19940;-41
2023/09/02 12:46:45;;;;;;;;;;;25.60;99.90;;;;;;5031886;28;20311;-41
2023/09/02 12:49:13;;;;;;;;;;;25.80;99.90;;;;;;5029296;28;19929;-41
2023/09/02 12:51:40;;;;;;;;;;;26.00;99.90;;;;;;5063452;28;20055;-41
2023/09/02 12:54:10;;;;;;;;;;;25.90;99.90;;;;;;5027879;28;19967;-40
2023/09/02 12:56:38;;;;;;;;;;;26.00;99.90;;;;;;5061256;28;19925;-41
2023/09/02 12:59:05;;;;;;;;;;;26.20;99.90;;;;;;5049671;28;19939;-41
2023/09/02 13:01:31;;;;;;;;;;;26.10;99.70;;;;;;5033767;28;20020;-41
2023/09/02 13:03:58;;;;;;;;;;;26.00;99.90;;;;;;5027806;28;19989;-41
2023/09/02 13:06:25;;;;;;;;;;;25.80;99.90;;;;;;5028543;28;19986;-41
2023/09/02 13:08:52;;;;;;;;;;;25.60;99.80;;;;;;5019964;28;20278;-41
2023/09/02 13:11:19;;;;;;;;;;;25.40;99.90;;;;;;5022211;28;19957;-41
2023/09/02 13:13:47;;;;;;;;;;;25.20;99.90;;;;;;5034644;28;19955;-41
2023/09/02 13:16:14;;;;;;;;;;;25.00;99.90;;;;;;5066982;28;19939;-41
2023/09/02 13:18:40;;;;;;;;;;;24.90;99.90;;;;;;5022511;28;19940;-41
2023/09/02 13:21:07;;;;;;;;;;;25.00;99.90;;;;;;5032859;28;19964;-41
2023/09/02 13:23:34;;;;;;;;;;;25.10;99.90;;;;;;5020814;28;20016;-41
2023/09/02 13:26:00;;;;;;;;;;;25.30;99.90;;;;;;5047343;28;20016;-41
2023/09/02 13:28:28;;;;;;;;;;;25.50;99.90;;;;;;5017911;28;20031;-39
2023/09/02 13:30:56;;;;;;;;;;;25.70;99.60;;;;;;5020152;28;19991;-40
2023/09/02 13:33:23;;;;;;;;;;;25.80;99.20;;;;;;5013564;28;19987;-39
2023/09/02 13:35:49;;;;;;;;;;;25.90;97.00;;;;;;5019128;28;20003;-39
2023/09/02 13:38:16;;;;;;;;;;;25.90;96.70;;;;;;5034534;28;19952;-42
2023/09/02 13:40:43;;;;;;;;;;;25.90;97.40;;;;;;5034462;28;20001;-42
2023/09/02 13:43:12;;;;;;;;;;;25.90;97.20;;;;;;5034261;28;19967;-42
2023/09/02 13:45:39;;;;;;;;;;;26.10;98.90;;;;;;5034498;28;19939;-41
2023/09/02 13:48:07;;;;;;;;;;;26.20;98.50;;;;;;5021214;28;19950;-41
2023/09/02 13:50:34;;;;;;;;;;;26.10;99.30;;;;;;5027561;28;19974;-41
2023/09/02 13:53:01;;;;;;;;;;;26.30;98.70;;;;;;5031490;28;20303;-41
2023/09/02 13:55:28;;;;;;;;;;;26.30;97.50;;;;;;5032561;28;20454;-42
2023/09/02 13:57:54;;;;;;;;;;;26.30;98.10;;;;;;5032991;28;19935;-41
2023/09/02 14:00:22;;;;;;;;;;;26.30;97.30;;;;;;5029582;28;19926;-41
2023/09/02 14:02:49;;;;;;;;;;;26.10;97.90;;;;;;5025300;28;19940;-41
2023/09/02 14:05:18;;;;;;;;;;;25.90;98.90;;;;;;5023131;28;19964;-41
2023/09/02 14:07:45;;;;;;;;;;;25.70;98.60;;;;;;5031853;28;19925;-42
2023/09/02 14:10:12;;;;;;;;;;;25.70;98.60;;;;;;5032863;28;20378;-41
2023/09/02 14:12:39;;;;;;;;;;;25.70;99.60;;;;;;5033975;28;19960;-41
2023/09/02 14:15:06;;;;;;;;;;;25.90;99.00;;;;;;5028290;28;19940;-41